sensor_id;sensor_type;location;lat;lon;timestamp;pressure;altitude;pressure_sealevel;temperature;humidity
73453;BME280;61687;56.232;43.854;2022-12-24T00:02:22;99989.34;;;3.22;81.94
73453;BME280;61687;56.232;43.854;2022-12-24T00:04:48;99999.06;;;3.23;82.00
73453;BME280;61687;56.232;43.854;2022-12-24T00:07:14;100009.41;;;3.29;81.80
73453;BME280;61687;56.232;43.854;2022-12-24T00:09:40;100007.16;;;3.32;81.76
73453;BME280;61687;56.232;43.854;2022-12-24T00:12:06;100003.97;;;3.29;81.73
73453;BME280;61687;56.232;43.854;2022-12-24T00:14:32;100006.50;;;3.35;81.71
73453;BME280;61687;56.232;43.854;2022-12-24T00:16:58;100002.53;;;3.32;81.84
73453;BME280;61687;56.232;43.854;2022-12-24T00:19:24;99999.38;;;3.30;81.76
73453;BME280;61687;56.232;43.854;2022-12-24T00:21:50;99996.47;;;3.35;81.58
73453;BME280;61687;56.232;43.854;2022-12-24T00:24:16;99995.34;;;3.36;81.74
73453;BME280;61687;56.232;43.854;2022-12-24T00:26:42;100002.81;;;3.39;81.55
73453;BME280;61687;56.232;43.854;2022-12-24T00:29:08;100001.03;;;3.43;81.47
73453;BME280;61687;56.232;43.854;2022-12-24T00:31:35;100004.25;;;3.37;81.50
73453;BME280;61687;56.232;43.854;2022-12-24T00:34:01;100000.41;;;3.38;81.26
73453;BME280;61687;56.232;43.854;2022-12-24T00:36:27;100008.09;;;3.36;81.48
73453;BME280;61687;56.232;43.854;2022-12-24T00:38:53;100002.34;;;3.37;81.44
73453;BME280;61687;56.232;43.854;2022-12-24T00:41:19;99999.63;;;3.37;81.44
73453;BME280;61687;56.232;43.854;2022-12-24T00:43:56;100004.91;;;3.34;81.56
73453;BME280;61687;56.232;43.854;2022-12-24T00:46:23;100008.22;;;3.39;81.57
73453;BME280;61687;56.232;43.854;2022-12-24T00:48:50;100009.53;;;3.33;81.96
73453;BME280;61687;56.232;43.854;2022-12-24T00:51:16;100007.31;;;3.35;81.81
73453;BME280;61687;56.232;43.854;2022-12-24T00:53:42;99999.38;;;3.30;82.06
73453;BME280;61687;56.232;43.854;2022-12-24T00:56:08;100011.13;;;3.34;82.12
73453;BME280;61687;56.232;43.854;2022-12-24T00:58:34;100005.72;;;3.34;82.02
73453;BME280;61687;56.232;43.854;2022-12-24T01:01:00;100006.97;;;3.37;81.89
73453;BME280;61687;56.232;43.854;2022-12-24T01:03:26;100001.22;;;3.38;81.82
73453;BME280;61687;56.232;43.854;2022-12-24T01:06:06;100012.06;;;3.38;81.98
73453;BME280;61687;56.232;43.854;2022-12-24T01:08:32;100021.78;;;3.39;81.73
73453;BME280;61687;56.232;43.854;2022-12-24T01:11:01;100016.50;;;3.43;81.77
73453;BME280;61687;56.232;43.854;2022-12-24T01:13:27;100022.72;;;3.43;81.74
73453;BME280;61687;56.232;43.854;2022-12-24T01:15:55;100023.22;;;3.37;81.88
73453;BME280;61687;56.232;43.854;2022-12-24T01:18:22;100029.25;;;3.42;81.79
73453;BME280;61687;56.232;43.854;2022-12-24T01:21:00;100032.22;;;3.50;81.57
73453;BME280;61687;56.232;43.854;2022-12-24T01:23:28;100029.72;;;3.44;81.61
73453;BME280;61687;56.232;43.854;2022-12-24T01:25:54;100030.06;;;3.43;81.73
73453;BME280;61687;56.232;43.854;2022-12-24T01:28:21;100027.81;;;3.45;81.68
73453;BME280;61687;56.232;43.854;2022-12-24T01:30:47;100022.25;;;3.41;81.84
73453;BME280;61687;56.232;43.854;2022-12-24T01:33:13;100029.91;;;3.39;81.86
73453;BME280;61687;56.232;43.854;2022-12-24T01:35:40;100028.78;;;3.40;81.77
73453;BME280;61687;56.232;43.854;2022-12-24T01:38:06;100027.19;;;3.39;81.76
73453;BME280;61687;56.232;43.854;2022-12-24T01:40:32;100036.25;;;3.43;81.75
73453;BME280;61687;56.232;43.854;2022-12-24T01:43:19;100045.78;;;3.50;81.39
73453;BME280;61687;56.232;43.854;2022-12-24T01:46:00;100038.66;;;3.45;81.70
73453;BME280;61687;56.232;43.854;2022-12-24T01:48:43;100047.41;;;3.51;81.30
73453;BME280;61687;56.232;43.854;2022-12-24T01:54:03;100051.69;;;3.52;81.29
73453;BME280;61687;56.232;43.854;2022-12-24T01:56:30;100054.88;;;3.54;81.29
73453;BME280;61687;56.232;43.854;2022-12-24T01:59:07;100049.28;;;3.50;81.44
73453;BME280;61687;56.232;43.854;2022-12-24T02:01:35;100046.59;;;3.50;81.47
73453;BME280;61687;56.232;43.854;2022-12-24T02:04:06;100060.44;;;3.49;81.45
73453;BME280;61687;56.232;43.854;2022-12-24T02:06:33;100057.28;;;3.47;81.51
73453;BME280;61687;56.232;43.854;2022-12-24T02:08:59;100055.84;;;3.49;81.44
73453;BME280;61687;56.232;43.854;2022-12-24T02:11:25;100058.22;;;3.51;81.57
73453;BME280;61687;56.232;43.854;2022-12-24T02:13:55;100058.84;;;3.48;81.62
73453;BME280;61687;56.232;43.854;2022-12-24T02:40:54;100097.78;;;3.43;82.50
73453;BME280;61687;56.232;43.854;2022-12-24T02:43:24;100098.56;;;3.43;82.58
73453;BME280;61687;56.232;43.854;2022-12-24T02:45:58;100090.63;;;3.38;82.97
73453;BME280;61687;56.232;43.854;2022-12-24T02:48:26;100097.31;;;3.41;82.75
73453;BME280;61687;56.232;43.854;2022-12-24T02:51:04;100098.59;;;3.35;83.14
73453;BME280;61687;56.232;43.854;2022-12-24T02:53:31;100099.41;;;3.35;83.12
73453;BME280;61687;56.232;43.854;2022-12-24T03:10:03;100096.00;;;3.47;82.62
73453;BME280;61687;56.232;43.854;2022-12-24T03:12:42;100111.59;;;3.50;82.58
73453;BME280;61687;56.232;43.854;2022-12-24T03:15:13;100095.53;;;3.45;82.43
73453;BME280;61687;56.232;43.854;2022-12-24T03:17:41;100112.25;;;3.47;82.39
73453;BME280;61687;56.232;43.854;2022-12-24T03:20:10;100111.78;;;3.45;82.72
73453;BME280;61687;56.232;43.854;2022-12-24T03:22:38;100111.47;;;3.38;82.93
73453;BME280;61687;56.232;43.854;2022-12-24T03:25:04;100114.53;;;3.36;83.00
73453;BME280;61687;56.232;43.854;2022-12-24T03:27:32;100114.84;;;3.35;83.19
73453;BME280;61687;56.232;43.854;2022-12-24T03:30:00;100112.47;;;3.33;83.31
73453;BME280;61687;56.232;43.854;2022-12-24T03:32:31;100110.22;;;3.35;83.16
73453;BME280;61687;56.232;43.854;2022-12-24T03:34:57;100115.00;;;3.38;83.02
73453;BME280;61687;56.232;43.854;2022-12-24T03:37:23;100123.31;;;3.33;83.32
73453;BME280;61687;56.232;43.854;2022-12-24T03:39:50;100121.25;;;3.30;83.27
73453;BME280;61687;56.232;43.854;2022-12-24T03:42:16;100126.97;;;3.28;83.27
73453;BME280;61687;56.232;43.854;2022-12-24T03:44:42;100127.28;;;3.27;83.37
73453;BME280;61687;56.232;43.854;2022-12-24T03:47:08;100135.41;;;3.27;83.46
73453;BME280;61687;56.232;43.854;2022-12-24T03:49:34;100129.50;;;3.25;83.43
73453;BME280;61687;56.232;43.854;2022-12-24T03:52:00;100131.28;;;3.21;83.70
73453;BME280;61687;56.232;43.854;2022-12-24T03:54:26;100134.63;;;3.26;83.49
73453;BME280;61687;56.232;43.854;2022-12-24T03:56:52;100134.47;;;3.23;83.64
73453;BME280;61687;56.232;43.854;2022-12-24T03:59:17;100131.28;;;3.21;83.73
73453;BME280;61687;56.232;43.854;2022-12-24T04:01:44;100139.59;;;3.15;83.82
73453;BME280;61687;56.232;43.854;2022-12-24T04:04:09;100142.59;;;3.14;84.11
73453;BME280;61687;56.232;43.854;2022-12-24T04:06:35;100143.25;;;3.11;84.09
73453;BME280;61687;56.232;43.854;2022-12-24T04:09:01;100143.59;;;3.09;84.24
73453;BME280;61687;56.232;43.854;2022-12-24T04:11:30;100142.59;;;3.14;84.12
73453;BME280;61687;56.232;43.854;2022-12-24T04:13:57;100139.25;;;3.17;83.89
73453;BME280;61687;56.232;43.854;2022-12-24T04:16:23;100146.91;;;3.15;84.05
73453;BME280;61687;56.232;43.854;2022-12-24T04:18:49;100145.47;;;3.18;83.90
73453;BME280;61687;56.232;43.854;2022-12-24T04:21:15;100145.31;;;3.14;84.24
73453;BME280;61687;56.232;43.854;2022-12-24T04:23:42;100146.28;;;3.09;84.18
73453;BME280;61687;56.232;43.854;2022-12-24T04:26:10;100157.13;;;3.09;84.42
73453;BME280;61687;56.232;43.854;2022-12-24T04:28:37;100139.44;;;3.03;84.51
73453;BME280;61687;56.232;43.854;2022-12-24T04:31:06;100153.59;;;3.00;84.72
73453;BME280;61687;56.232;43.854;2022-12-24T04:33:33;100156.47;;;3.04;84.71
73453;BME280;61687;56.232;43.854;2022-12-24T04:36:00;100160.44;;;3.06;84.45
73453;BME280;61687;56.232;43.854;2022-12-24T04:38:27;100149.63;;;3.06;84.48
73453;BME280;61687;56.232;43.854;2022-12-24T04:41:01;100157.72;;;3.06;84.50
73453;BME280;61687;56.232;43.854;2022-12-24T04:43:28;100158.38;;;3.03;84.60
73453;BME280;61687;56.232;43.854;2022-12-24T04:45:55;100165.38;;;3.04;84.56
73453;BME280;61687;56.232;43.854;2022-12-24T04:48:21;100167.44;;;3.07;84.56
73453;BME280;61687;56.232;43.854;2022-12-24T04:50:47;100162.53;;;3.09;84.30
73453;BME280;61687;56.232;43.854;2022-12-24T04:53:13;100162.03;;;3.07;84.37
73453;BME280;61687;56.232;43.854;2022-12-24T04:55:44;100167.44;;;3.07;84.38
73453;BME280;61687;56.232;43.854;2022-12-24T04:58:10;100166.66;;;3.07;84.51
73453;BME280;61687;56.232;43.854;2022-12-24T05:00:36;100162.19;;;3.11;84.40
73453;BME280;61687;56.232;43.854;2022-12-24T05:03:02;100157.91;;;3.10;84.32
73453;BME280;61687;56.232;43.854;2022-12-24T05:05:28;100173.50;;;3.13;84.20
73453;BME280;61687;56.232;43.854;2022-12-24T05:07:54;100178.91;;;3.13;84.15
73453;BME280;61687;56.232;43.854;2022-12-24T05:10:20;100174.97;;;3.10;84.01
73453;BME280;61687;56.232;43.854;2022-12-24T05:12:46;100183.38;;;3.09;83.87
73453;BME280;61687;56.232;43.854;2022-12-24T05:15:12;100179.56;;;3.10;84.28
73453;BME280;61687;56.232;43.854;2022-12-24T05:17:38;100185.94;;;3.05;84.39
73453;BME280;61687;56.232;43.854;2022-12-24T05:20:05;100179.72;;;3.05;84.31
73453;BME280;61687;56.232;43.854;2022-12-24T05:22:31;100187.50;;;3.06;84.02
73453;BME280;61687;56.232;43.854;2022-12-24T05:25:15;100185.78;;;3.10;84.02
73453;BME280;61687;56.232;43.854;2022-12-24T05:27:59;100189.75;;;3.13;83.78
73453;BME280;61687;56.232;43.854;2022-12-24T05:30:25;100199.63;;;3.18;83.80
73453;BME280;61687;56.232;43.854;2022-12-24T05:32:51;100194.69;;;3.20;83.57
73453;BME280;61687;56.232;43.854;2022-12-24T05:35:17;100200.56;;;3.13;83.96
73453;BME280;61687;56.232;43.854;2022-12-24T05:37:43;100205.34;;;3.16;83.92
73453;BME280;61687;56.232;43.854;2022-12-24T05:40:09;100200.91;;;3.20;83.57
73453;BME280;61687;56.232;43.854;2022-12-24T05:42:35;100208.22;;;3.20;83.98
73453;BME280;61687;56.232;43.854;2022-12-24T05:45:00;100212.69;;;3.24;83.67
73453;BME280;61687;56.232;43.854;2022-12-24T05:47:29;100211.75;;;3.20;83.62
73453;BME280;61687;56.232;43.854;2022-12-24T05:49:54;100208.22;;;3.20;83.67
73453;BME280;61687;56.232;43.854;2022-12-24T05:52:20;100214.44;;;3.20;83.54
73453;BME280;61687;56.232;43.854;2022-12-24T05:54:46;100215.72;;;3.23;83.55
73453;BME280;61687;56.232;43.854;2022-12-24T05:57:12;100218.75;;;3.21;83.56
73453;BME280;61687;56.232;43.854;2022-12-24T05:59:38;100220.66;;;3.21;83.67
73453;BME280;61687;56.232;43.854;2022-12-24T06:02:04;100224.00;;;3.26;83.75
73453;BME280;61687;56.232;43.854;2022-12-24T06:04:29;100218.25;;;3.28;83.50
73453;BME280;61687;56.232;43.854;2022-12-24T06:06:55;100218.88;;;3.34;83.23
73453;BME280;61687;56.232;43.854;2022-12-24T06:09:21;100224.63;;;3.23;83.61
73453;BME280;61687;56.232;43.854;2022-12-24T06:11:47;100231.66;;;3.24;83.84
73453;BME280;61687;56.232;43.854;2022-12-24T06:14:13;100229.41;;;3.26;83.56
73453;BME280;61687;56.232;43.854;2022-12-24T06:16:38;100234.34;;;3.24;83.79
73453;BME280;61687;56.232;43.854;2022-12-24T06:19:04;100240.56;;;3.25;83.80
73453;BME280;61687;56.232;43.854;2022-12-24T06:21:30;100235.31;;;3.28;83.62
73453;BME280;61687;56.232;43.854;2022-12-24T06:23:56;100240.41;;;3.30;83.60
73453;BME280;61687;56.232;43.854;2022-12-24T06:26:22;100240.41;;;3.30;83.46
73453;BME280;61687;56.232;43.854;2022-12-24T06:28:49;100243.13;;;3.30;83.45
73453;BME280;61687;56.232;43.854;2022-12-24T06:31:18;100229.25;;;3.32;83.41
73453;BME280;61687;56.232;43.854;2022-12-24T06:33:44;100229.25;;;3.32;83.52
73453;BME280;61687;56.232;43.854;2022-12-24T06:36:28;100237.19;;;3.28;83.60
73453;BME280;61687;56.232;43.854;2022-12-24T06:38:54;100232.13;;;3.26;83.64
73453;BME280;61687;56.232;43.854;2022-12-24T06:41:20;100235.31;;;3.28;83.44
73453;BME280;61687;56.232;43.854;2022-12-24T06:43:48;100231.47;;;3.29;83.41
73453;BME280;61687;56.232;43.854;2022-12-24T06:46:14;100235.78;;;3.31;83.70
73453;BME280;61687;56.232;43.854;2022-12-24T06:48:44;100238.66;;;3.34;83.34
73453;BME280;61687;56.232;43.854;2022-12-24T06:51:12;100236.13;;;3.29;83.56
73453;BME280;61687;56.232;43.854;2022-12-24T06:53:38;100240.25;;;3.35;83.43
73453;BME280;61687;56.232;43.854;2022-12-24T06:56:08;100248.03;;;3.37;83.49
73453;BME280;61687;56.232;43.854;2022-12-24T06:58:35;100248.66;;;3.42;83.04
73453;BME280;61687;56.232;43.854;2022-12-24T07:01:02;100244.38;;;3.41;83.21
73453;BME280;61687;56.232;43.854;2022-12-24T07:03:30;100247.41;;;3.40;83.59
73453;BME280;61687;56.232;43.854;2022-12-24T07:05:56;100249.63;;;3.47;83.18
73453;BME280;61687;56.232;43.854;2022-12-24T07:08:22;100245.00;;;3.47;83.28
73453;BME280;61687;56.232;43.854;2022-12-24T07:10:49;100250.72;;;3.54;83.17
73453;BME280;61687;56.232;43.854;2022-12-24T07:13:16;100249.94;;;3.54;83.03
73453;BME280;61687;56.232;43.854;2022-12-24T07:15:41;100257.44;;;3.57;82.96
73453;BME280;61687;56.232;43.854;2022-12-24T07:18:07;100254.09;;;3.51;82.88
73453;BME280;61687;56.232;43.854;2022-12-24T07:20:33;100249.31;;;3.48;83.03
73453;BME280;61687;56.232;43.854;2022-12-24T07:23:00;100251.56;;;3.46;83.29
73453;BME280;61687;56.232;43.854;2022-12-24T07:25:25;100251.22;;;3.48;83.11
73453;BME280;61687;56.232;43.854;2022-12-24T07:27:51;100245.31;;;3.46;83.27
73453;BME280;61687;56.232;43.854;2022-12-24T07:30:17;100244.19;;;3.47;83.19
73453;BME280;61687;56.232;43.854;2022-12-24T07:32:43;100247.72;;;3.47;83.45
73453;BME280;61687;56.232;43.854;2022-12-24T07:35:09;100243.72;;;3.53;83.09
73453;BME280;61687;56.232;43.854;2022-12-24T07:37:35;100261.72;;;3.58;83.01
73453;BME280;61687;56.232;43.854;2022-12-24T07:40:01;100252.78;;;3.66;82.62
73453;BME280;61687;56.232;43.854;2022-12-24T07:42:28;100256.31;;;3.67;82.29
73453;BME280;61687;56.232;43.854;2022-12-24T07:44:54;100249.31;;;3.57;82.97
73453;BME280;61687;56.232;43.854;2022-12-24T07:47:20;100251.38;;;3.60;82.93
73453;BME280;61687;56.232;43.854;2022-12-24T07:49:46;100246.88;;;3.64;82.55
73453;BME280;61687;56.232;43.854;2022-12-24T07:52:12;100244.53;;;3.63;82.64
73453;BME280;61687;56.232;43.854;2022-12-24T07:54:37;100256.94;;;3.64;82.57
73453;BME280;61687;56.232;43.854;2022-12-24T07:57:03;100248.81;;;3.64;82.59
73453;BME280;61687;56.232;43.854;2022-12-24T07:59:29;100234.94;;;3.65;82.45
73453;BME280;61687;56.232;43.854;2022-12-24T08:01:55;100245.47;;;3.67;82.40
73453;BME280;61687;56.232;43.854;2022-12-24T08:04:21;100242.75;;;3.58;82.31
73453;BME280;61687;56.232;43.854;2022-12-24T08:06:47;100241.97;;;3.57;82.52
73453;BME280;61687;56.232;43.854;2022-12-24T08:09:12;100243.06;;;3.56;82.43
73453;BME280;61687;56.232;43.854;2022-12-24T08:11:39;100239.25;;;3.57;82.52
73453;BME280;61687;56.232;43.854;2022-12-24T08:14:05;100241.31;;;3.61;82.50
73453;BME280;61687;56.232;43.854;2022-12-24T08:16:31;100242.75;;;3.67;82.22
73453;BME280;61687;56.232;43.854;2022-12-24T08:19:01;100245.13;;;3.68;82.16
73453;BME280;61687;56.232;43.854;2022-12-24T08:21:29;100244.63;;;3.75;81.77
73453;BME280;61687;56.232;43.854;2022-12-24T08:23:55;100242.25;;;3.74;81.85
73453;BME280;61687;56.232;43.854;2022-12-24T08:26:21;100243.69;;;3.80;81.68
73453;BME280;61687;56.232;43.854;2022-12-24T08:28:47;100239.84;;;3.81;81.40
73453;BME280;61687;56.232;43.854;2022-12-24T08:31:13;100235.56;;;3.71;81.52
73453;BME280;61687;56.232;43.854;2022-12-24T08:33:40;100237.97;;;3.72;81.70
73453;BME280;61687;56.232;43.854;2022-12-24T08:36:06;100237.47;;;3.70;81.60
73453;BME280;61687;56.232;43.854;2022-12-24T08:38:32;100244.50;;;3.71;81.70
73453;BME280;61687;56.232;43.854;2022-12-24T08:40:58;100237.97;;;3.72;81.44
73453;BME280;61687;56.232;43.854;2022-12-24T08:43:24;100243.53;;;3.67;81.64
73453;BME280;61687;56.232;43.854;2022-12-24T08:45:52;100235.41;;;3.67;81.72
73453;BME280;61687;56.232;43.854;2022-12-24T08:48:18;100240.97;;;3.71;81.62
73453;BME280;61687;56.232;43.854;2022-12-24T08:50:44;100221.38;;;3.74;81.57
73453;BME280;61687;56.232;43.854;2022-12-24T08:53:10;100235.72;;;3.75;81.21
73453;BME280;61687;56.232;43.854;2022-12-24T08:55:37;100225.84;;;3.70;81.35
73453;BME280;61687;56.232;43.854;2022-12-24T08:58:03;100235.09;;;3.69;81.51
73453;BME280;61687;56.232;43.854;2022-12-24T09:00:29;100229.84;;;3.64;81.72
73453;BME280;61687;56.232;43.854;2022-12-24T09:02:55;100225.38;;;3.59;82.00
73453;BME280;61687;56.232;43.854;2022-12-24T09:05:22;100223.00;;;3.57;81.95
73453;BME280;61687;56.232;43.854;2022-12-24T09:07:48;100220.28;;;3.57;81.97
73453;BME280;61687;56.232;43.854;2022-12-24T09:10:14;100216.78;;;3.57;81.96
73453;BME280;61687;56.232;43.854;2022-12-24T09:12:40;100216.63;;;3.53;82.14
73453;BME280;61687;56.232;43.854;2022-12-24T09:15:06;100223.16;;;3.52;82.12
73453;BME280;61687;56.232;43.854;2022-12-24T09:17:33;100218.22;;;3.54;82.25
73453;BME280;61687;56.232;43.854;2022-12-24T09:19:59;100223.16;;;3.61;81.96
73453;BME280;61687;56.232;43.854;2022-12-24T09:22:25;100224.56;;;3.67;81.60
73453;BME280;61687;56.232;43.854;2022-12-24T09:24:53;100229.03;;;3.63;81.60
73453;BME280;61687;56.232;43.854;2022-12-24T09:27:18;100229.38;;;3.62;81.28
73453;BME280;61687;56.232;43.854;2022-12-24T09:29:44;100225.38;;;3.59;81.54
73453;BME280;61687;56.232;43.854;2022-12-24T09:32:10;100222.50;;;3.55;81.85
73453;BME280;61687;56.232;43.854;2022-12-24T09:34:36;100232.56;;;3.55;81.79
73453;BME280;61687;56.232;43.854;2022-12-24T09:37:02;100219.97;;;3.59;81.62
73453;BME280;61687;56.232;43.854;2022-12-24T09:39:28;100219.63;;;3.61;81.37
73453;BME280;61687;56.232;43.854;2022-12-24T09:47:23;100223.16;;;3.52;81.65
73453;BME280;61687;56.232;43.854;2022-12-24T09:49:53;100218.56;;;3.53;81.78
73453;BME280;61687;56.232;43.854;2022-12-24T09:52:37;100216.78;;;3.57;81.50
73453;BME280;61687;56.232;43.854;2022-12-24T09:57:51;100213.91;;;3.53;81.55
73453;BME280;61687;56.232;43.854;2022-12-24T10:00:28;100209.94;;;3.51;81.55
73453;BME280;61687;56.232;43.854;2022-12-24T10:02:54;100208.97;;;3.47;81.88
73453;BME280;61687;56.232;43.854;2022-12-24T10:05:35;100211.22;;;3.44;81.78
73453;BME280;61687;56.232;43.854;2022-12-24T10:11:18;100195.63;;;3.41;81.83
73453;BME280;61687;56.232;43.854;2022-12-24T10:22:24;100176.69;;;3.24;82.46
73453;BME280;61687;56.232;43.854;2022-12-24T10:27:34;100174.44;;;3.17;82.61
73453;BME280;61687;56.232;43.854;2022-12-24T10:30:11;100173.66;;;3.17;82.58
73453;BME280;61687;56.232;43.854;2022-12-24T10:32:38;100172.56;;;3.18;82.51
73453;BME280;61687;56.232;43.854;2022-12-24T10:37:47;100180.19;;;3.15;82.41
73453;BME280;61687;56.232;43.854;2022-12-24T10:40:19;100171.28;;;3.15;82.37
73453;BME280;61687;56.232;43.854;2022-12-24T10:42:47;100179.56;;;3.10;82.49
73453;BME280;61687;56.232;43.854;2022-12-24T10:45:19;100180.84;;;3.12;82.42
73453;BME280;61687;56.232;43.854;2022-12-24T10:47:49;100177.19;;;3.08;82.46
73453;BME280;61687;56.232;43.854;2022-12-24T10:52:54;100170.81;;;3.04;82.31
73453;BME280;61687;56.232;43.854;2022-12-24T10:55:24;100174.97;;;3.02;82.36
73453;BME280;61687;56.232;43.854;2022-12-24T10:58:03;100175.25;;;3.00;82.16
73453;BME280;61687;56.232;43.854;2022-12-24T11:00:30;100173.03;;;3.02;82.19
73453;BME280;61687;56.232;43.854;2022-12-24T11:05:39;100175.75;;;3.02;81.93
73453;BME280;61687;56.232;43.854;2022-12-24T11:08:14;100169.53;;;2.93;82.17
73453;BME280;61687;56.232;43.854;2022-12-24T11:10:55;100175.75;;;2.93;81.96
73453;BME280;61687;56.232;43.854;2022-12-24T11:16:07;100179.09;;;2.90;82.09
73453;BME280;61687;56.232;43.854;2022-12-24T11:18:37;100191.66;;;2.86;82.20
73453;BME280;61687;56.232;43.854;2022-12-24T11:21:09;100189.28;;;2.84;82.20
73453;BME280;61687;56.232;43.854;2022-12-24T11:23:35;100181.66;;;2.86;82.11
73453;BME280;61687;56.232;43.854;2022-12-24T11:26:01;100189.59;;;2.92;81.75
73453;BME280;61687;56.232;43.854;2022-12-24T11:28:29;100195.66;;;2.89;81.74
73453;BME280;61687;56.232;43.854;2022-12-24T11:31:20;100199.31;;;2.84;81.99
73453;BME280;61687;56.232;43.854;2022-12-24T11:33:48;100190.84;;;2.85;81.56
73453;BME280;61687;56.232;43.854;2022-12-24T11:36:19;100187.69;;;2.83;81.56
73453;BME280;61687;56.232;43.854;2022-12-24T11:38:56;100194.38;;;2.77;81.83
73453;BME280;61687;56.232;43.854;2022-12-24T11:41:24;100205.19;;;2.77;81.73
73453;BME280;61687;56.232;43.854;2022-12-24T11:43:58;100200.59;;;2.78;81.62
73453;BME280;61687;56.232;43.854;2022-12-24T11:46:39;100197.88;;;2.78;81.60
73453;BME280;61687;56.232;43.854;2022-12-24T11:51:39;100205.50;;;2.84;81.37
73453;BME280;61687;56.232;43.854;2022-12-24T11:54:20;100203.63;;;2.85;80.95
73453;BME280;61687;56.232;43.854;2022-12-24T11:56:52;100202.31;;;2.82;80.93
73453;BME280;61687;56.232;43.854;2022-12-24T11:59:25;100200.25;;;2.79;80.98
73453;BME280;61687;56.232;43.854;2022-12-24T12:04:39;100193.91;;;2.84;80.61
73453;BME280;61687;56.232;43.854;2022-12-24T12:09:43;100188.97;;;2.77;80.58
73453;BME280;61687;56.232;43.854;2022-12-24T12:12:17;100184.34;;;2.78;80.43
73453;BME280;61687;56.232;43.854;2022-12-24T12:14:50;100190.25;;;2.80;80.39
73453;BME280;61687;56.232;43.854;2022-12-24T12:17:35;100196.59;;;2.75;80.42
73453;BME280;61687;56.232;43.854;2022-12-24T12:25:46;100176.69;;;2.71;80.35
73453;BME280;61687;56.232;43.854;2022-12-24T12:28:17;100180.53;;;2.70;80.11
73453;BME280;61687;56.232;43.854;2022-12-24T12:30:46;100187.06;;;2.69;80.28
73453;BME280;61687;56.232;43.854;2022-12-24T12:33:27;100186.25;;;2.68;80.33
73453;BME280;61687;56.232;43.854;2022-12-24T12:35:54;100183.53;;;2.68;80.00
73453;BME280;61687;56.232;43.854;2022-12-24T12:38:26;100187.50;;;2.62;80.28
73453;BME280;61687;56.232;43.854;2022-12-24T12:41:04;100184.81;;;2.62;80.24
73453;BME280;61687;56.232;43.854;2022-12-24T12:44:00;100186.56;;;2.58;80.37
73453;BME280;61687;56.232;43.854;2022-12-24T12:49:40;100181.63;;;2.60;80.09
73453;BME280;61687;56.232;43.854;2022-12-24T12:52:21;100178.91;;;2.51;80.45
73453;BME280;61687;56.232;43.854;2022-12-24T12:55:05;100184.50;;;2.55;80.34
73453;BME280;61687;56.232;43.854;2022-12-24T12:57:42;100190.84;;;2.50;80.45
73453;BME280;61687;56.232;43.854;2022-12-24T13:00:14;100192.59;;;2.46;80.73
73453;BME280;61687;56.232;43.854;2022-12-24T13:10:52;100197.50;;;2.44;80.64
73453;BME280;61687;56.232;43.854;2022-12-24T13:13:38;100205.31;;;2.46;80.71
73453;BME280;61687;56.232;43.854;2022-12-24T13:19:24;100208.47;;;2.48;80.50
73453;BME280;61687;56.232;43.854;2022-12-24T13:21:54;100205.97;;;2.51;80.45
73453;BME280;61687;56.232;43.854;2022-12-24T13:24:26;100190.19;;;2.53;80.24
73453;BME280;61687;56.232;43.854;2022-12-24T13:27:03;100194.66;;;2.49;80.26
73453;BME280;61687;56.232;43.854;2022-12-24T13:29:42;100192.72;;;2.50;80.32
73453;BME280;61687;56.232;43.854;2022-12-24T13:34:54;100207.53;;;2.52;80.54
73453;BME280;61687;56.232;43.854;2022-12-24T13:37:22;100212.16;;;2.61;80.27
73453;BME280;61687;56.232;43.854;2022-12-24T13:50:42;100215.03;;;2.55;80.13
73453;BME280;61687;56.232;43.854;2022-12-24T13:58:20;100204.03;;;2.52;80.47
73453;BME280;61687;56.232;43.854;2022-12-24T14:00:54;100204.69;;;2.57;80.27
73453;BME280;61687;56.232;43.854;2022-12-24T14:03:35;100207.38;;;2.57;80.01
73453;BME280;61687;56.232;43.854;2022-12-24T14:06:36;100202.44;;;2.51;80.44
73453;BME280;61687;56.232;43.854;2022-12-24T14:09:13;100200.38;;;2.56;80.32
73453;BME280;61687;56.232;43.854;2022-12-24T14:14:33;100208.34;;;2.62;80.03
73453;BME280;61687;56.232;43.854;2022-12-24T14:17:02;100208.81;;;2.64;79.83
73453;BME280;61687;56.232;43.854;2022-12-24T14:19:45;100203.41;;;2.64;79.79
73453;BME280;61687;56.232;43.854;2022-12-24T14:24:55;100201.22;;;2.66;79.83
73453;BME280;61687;56.232;43.854;2022-12-24T14:27:49;100199.94;;;2.72;79.43
73453;BME280;61687;56.232;43.854;2022-12-24T14:30:22;100198.66;;;2.69;79.53
73453;BME280;61687;56.232;43.854;2022-12-24T14:32:50;100207.41;;;2.75;79.12
73453;BME280;61687;56.232;43.854;2022-12-24T14:35:22;100206.78;;;2.78;78.97
73453;BME280;61687;56.232;43.854;2022-12-24T14:38:01;100205.19;;;2.77;78.68
73453;BME280;61687;56.232;43.854;2022-12-24T14:40:30;100208.06;;;2.72;78.52
73453;BME280;61687;56.232;43.854;2022-12-24T14:51:26;100206.63;;;2.75;78.57
73453;BME280;61687;56.232;43.854;2022-12-24T15:02:29;100212.34;;;2.73;78.09
73453;BME280;61687;56.232;43.854;2022-12-24T15:05:10;100201.34;;;2.69;78.02
73453;BME280;61687;56.232;43.854;2022-12-24T15:07:41;100207.91;;;2.77;77.47
73453;BME280;61687;56.232;43.854;2022-12-24T15:10:24;100204.88;;;2.70;77.89
73453;BME280;61687;56.232;43.854;2022-12-24T15:12:51;100202.47;;;2.68;78.03
73453;BME280;61687;56.232;43.854;2022-12-24T15:15:19;100203.44;;;2.72;78.01
73453;BME280;61687;56.232;43.854;2022-12-24T15:17:45;100194.19;;;2.74;77.73
73453;BME280;61687;56.232;43.854;2022-12-24T15:20:16;100197.22;;;2.72;77.70
73453;BME280;61687;56.232;43.854;2022-12-24T15:22:44;100197.41;;;2.67;77.80
73453;BME280;61687;56.232;43.854;2022-12-24T15:25:20;100199.13;;;2.63;77.84